Time;durP1;ratioP1;P1;durP2;ratioP2;P2;SDS_P1;SDS_P2;PMS_P1;PMS_P2;Temp;Humidity;BMP_temperature;BMP_pressure;BME280_temperature;BME280_humidity;BME280_pressure;Samples;Min_cycle;Max_cycle;Signal;HPM_P1;HPM_P2
2023/07/02 00:02:19;;;;;;;17.00;15.10;;;;;;;19.07;65.03;99216.35;109650;1273;24402;-83
2023/07/02 00:04:59;;;;;;;15.30;13.70;;;;;;;19.08;64.86;99214.43;109417;1274;22649;-82
2023/07/02 00:08:02;;;;;;;15.80;14.20;;;;;;;19.08;64.78;99208.86;109278;1274;23621;-82
2023/07/02 00:11:12;;;;;;;16.70;15.00;;;;;;;19.06;64.70;99209.31;109481;1273;21984;-84
2023/07/02 00:14:07;;;;;;;18.60;13.90;;;;;;;19.09;64.72;99210.17;109262;1273;23002;-85
2023/07/02 00:17:18;;;;;;;17.30;14.20;;;;;;;19.06;64.59;99211.46;109578;1272;21983;-83
2023/07/02 00:20:19;;;;;;;14.30;12.90;;;;;;;19.05;64.43;99210.29;109200;1278;21994;-84
2023/07/02 00:23:16;;;;;;;15.90;13.60;;;;;;;19.06;64.32;99208.50;109293;1275;21995;-82
2023/07/02 00:26:02;;;;;;;17.60;14.10;;;;;;;19.08;64.18;99207.02;109540;1274;21851;-85
2023/07/02 00:28:40;;;;;;;13.60;12.20;;;;;;;19.11;63.92;99208.36;109423;1267;22583;-83
2023/07/02 00:31:18;;;;;;;14.40;13.00;;;;;;;19.12;63.80;99207.95;109438;1270;21986;-84
2023/07/02 00:34:37;;;;;;;14.10;12.40;;;;;;;19.13;63.78;99209.79;110684;1260;21950;-83
2023/07/02 00:37:52;;;;;;;14.20;12.40;;;;;;;19.17;63.68;99212.41;110890;1260;21971;-82
2023/07/02 00:40:39;;;;;;;17.90;12.10;;;;;;;19.16;63.32;99201.38;110763;1259;21977;-84
2023/07/02 00:43:49;;;;;;;14.10;12.80;;;;;;;19.19;63.19;99210.13;110649;1260;21981;-83
2023/07/02 00:47:16;;;;;;;12.00;10.90;;;;;;;19.15;63.17;99214.56;110924;1260;21944;-84
2023/07/02 00:50:33;;;;;;;15.30;10.90;;;;;;;19.15;63.31;99207.27;110297;1267;23048;-84
2023/07/02 00:53:26;;;;;;;16.10;12.50;;;;;;;19.20;63.08;99213.01;110151;1267;21998;-84
2023/07/02 00:56:34;;;;;;;14.10;11.20;;;;;;;19.26;63.11;99216.00;110115;1267;21974;-85
2023/07/02 00:59:40;;;;;;;11.20;10.00;;;;;;;19.31;62.89;99219.45;110481;1265;23691;-84
2023/07/02 01:02:58;;;;;;;11.10;10.00;;;;;;;19.36;62.60;99228.16;110468;1265;23776;-83
2023/07/02 01:05:39;;;;;;;13.10;9.80;;;;;;;19.40;62.21;99229.38;109597;1272;22733;-85
2023/07/02 01:08:37;;;;;;;15.10;10.20;;;;;;;19.44;61.96;99229.48;109982;1265;22662;-86
2023/07/02 01:11:55;;;;;;;11.00;10.00;;;;;;;19.43;61.66;99226.45;110593;1264;23114;-85
2023/07/02 01:14:38;;;;;;;11.80;9.30;;;;;;;19.42;61.44;99223.40;110462;1264;23034;-82
2023/07/02 01:17:47;;;;;;;15.50;9.90;;;;;;;19.42;61.30;99217.01;110634;1259;22253;-84
2023/07/02 01:20:53;;;;;;;11.70;9.90;;;;;;;19.37;61.36;99209.00;111054;1259;21965;-85
2023/07/02 01:23:50;;;;;;;10.80;9.00;;;;;;;19.43;61.22;99214.25;110846;1259;24363;-85
2023/07/02 01:26:51;;;;;;;12.00;9.50;;;;;;;19.44;61.10;99213.08;110960;1259;21978;-84
2023/07/02 01:29:44;;;;;;;12.00;8.50;;;;;;;19.46;61.07;99215.33;110664;1260;23061;-85
2023/07/02 01:32:17;;;;;;;10.10;8.10;;;;;;;19.50;61.03;99216.27;110791;1259;23259;-83
2023/07/02 01:34:56;;;;;;;9.80;8.90;;;;;;;19.54;60.77;99217.86;110852;1259;21961;-83
2023/07/02 01:37:54;;;;;;;12.90;8.90;;;;;;;19.55;60.71;99212.84;111679;1253;23798;-84
2023/07/02 01:40:35;;;;;;;9.30;8.30;;;;;;;19.56;60.55;99207.98;111118;1258;22316;-84
2023/07/02 01:43:29;;;;;;;12.90;8.00;;;;;;;19.58;60.37;99205.63;110650;1264;22238;-84
2023/07/02 01:46:36;;;;;;;9.70;8.40;;;;;;;19.60;60.14;99207.39;110290;1264;21977;-82
2023/07/02 01:49:13;;;;;;;10.10;8.40;;;;;;;19.61;59.97;99210.50;110662;1264;21962;-84
2023/07/02 01:52:12;;;;;;;10.90;9.40;;;;;;;19.54;59.68;99200.18;109846;1271;21982;-84
2023/07/02 01:55:17;;;;;;;12.10;9.50;;;;;;;19.51;59.56;99195.58;109725;1271;22742;-82
2023/07/02 01:58:02;;;;;;;11.20;9.00;;;;;;;19.51;59.25;99193.89;109686;1267;23902;-82
2023/07/02 02:00:42;;;;;;;8.60;7.70;;;;;;;19.53;59.14;99202.02;110462;1265;22003;-82
2023/07/02 02:03:37;;;;;;;8.60;7.80;;;;;;;19.42;58.94;99186.52;110492;1265;22004;-82
2023/07/02 02:06:47;;;;;;;9.30;8.40;;;;;;;19.49;58.89;99199.24;110429;1265;22022;-81
2023/07/02 02:09:46;;;;;;;10.20;8.10;;;;;;;19.51;58.73;99206.68;110738;1260;22058;-83
2023/07/02 02:12:35;;;;;;;8.10;7.30;;;;;;;19.47;58.66;99200.96;110869;1259;22030;-83
2023/07/02 02:15:13;;;;;;;10.20;8.20;;;;;;;19.54;58.56;99211.33;110967;1255;21978;-83
2023/07/02 02:18:06;;;;;;;9.40;8.50;;;;;;;19.41;58.29;99195.86;111386;1255;21961;-83
2023/07/02 02:20:54;;;;;;;10.30;7.90;;;;;;;19.53;58.17;99212.29;111041;1255;22062;-82
2023/07/02 02:23:34;;;;;;;10.60;8.50;;;;;;;19.46;58.06;99201.84;111236;1255;23676;-84
2023/07/02 02:26:06;;;;;;;8.60;7.50;;;;;;;19.46;58.04;99205.19;111157;1247;22266;-84
2023/07/02 02:29:22;;;;;;;8.60;7.60;;;;;;;19.52;57.89;99217.45;111260;1255;22040;-84
2023/07/02 02:32:25;;;;;;;9.30;8.10;;;;;;;19.50;57.75;99215.03;111184;1255;21978;-81
2023/07/02 02:35:14;;;;;;;9.80;7.60;;;;;;;19.48;57.81;99216.30;111050;1257;22230;-84
2023/07/02 02:37:51;;;;;;;8.80;8.00;;;;;;;19.50;57.82;99216.63;111069;1257;21960;-83
2023/07/02 02:40:55;;;;;;;9.60;7.20;;;;;;;19.49;57.77;99215.58;110467;1264;22058;-84
2023/07/02 02:43:36;;;;;;;9.20;8.20;;;;;;;19.51;57.68;99216.91;109967;1265;23594;-84
2023/07/02 02:46:33;;;;;;;8.70;7.10;;;;;;;19.44;57.56;99205.66;109816;1271;21979;-83
2023/07/02 02:49:33;;;;;;;9.60;7.40;;;;;;;19.50;57.53;99209.55;109333;1274;22642;-84
2023/07/02 02:52:14;;;;;;;9.30;7.40;;;;;;;19.44;57.52;99202.13;109307;1274;23822;-82
2023/07/02 02:54:56;;;;;;;9.40;7.60;;;;;;;19.53;57.56;99216.84;109361;1274;21985;-83
2023/07/02 02:57:39;;;;;;;12.00;6.50;;;;;;;19.50;57.66;99209.16;108909;1273;22008;-83
2023/07/02 03:00:45;;;;;;;8.90;7.50;;;;;;;19.52;57.53;99209.19;109458;1273;22005;-83
2023/07/02 03:03:24;;;;;;;8.10;6.90;;;;;;;19.57;57.50;99215.64;109539;1268;22826;-81
2023/07/02 03:06:09;;;;;;;8.20;7.30;;;;;;;19.53;57.31;99210.48;109370;1272;21963;-85
2023/07/02 03:08:51;;;;;;;7.90;7.10;;;;;;;19.53;57.26;99206.11;109428;1273;23058;-83
2023/07/02 03:12:05;;;;;;;8.70;7.20;;;;;;;19.58;57.11;99212.55;109249;1273;23792;-83
2023/07/02 03:14:40;;;;;;;7.50;6.40;;;;;;;19.57;57.09;99218.79;109212;1273;22377;-82
2023/07/02 03:17:17;;;;;;;7.80;6.60;;;;;;;19.57;57.02;99217.34;109394;1273;22009;-82
2023/07/02 03:20:04;;;;;;;10.00;7.20;;;;;;;19.57;57.03;99214.35;109605;1270;22301;-82
2023/07/02 03:22:54;;;;;;;10.80;8.00;;;;;;;19.52;57.09;99206.15;109698;1270;22190;-83
2023/07/02 03:25:26;;;;;;;10.20;7.50;;;;;;;19.62;57.19;99215.29;110093;1266;21982;-83
2023/07/02 03:28:08;;;;;;;8.40;7.00;;;;;;;19.65;57.07;99219.80;110371;1267;22299;-84
2023/07/02 03:30:42;;;;;;;11.30;7.00;;;;;;;19.62;57.03;99221.11;110317;1266;21973;-82
2023/07/02 03:33:17;;;;;;;9.50;8.30;;;;;;;19.64;57.15;99220.27;109801;1262;22306;-84
2023/07/02 03:36:22;;;;;;;10.50;8.30;;;;;;;19.64;57.20;99226.98;109529;1271;21986;-84
2023/07/02 03:39:01;;;;;;;8.40;7.40;;;;;;;19.50;57.10;99208.89;109683;1272;22287;-83
2023/07/02 03:41:50;;;;;;;9.00;7.30;;;;;;;19.57;57.23;99226.73;109523;1271;22021;-83
2023/07/02 03:44:42;;;;;;;8.90;7.50;;;;;;;19.51;57.36;99225.91;109455;1274;22027;-85
2023/07/02 03:47:49;;;;;;;11.30;8.20;;;;;;;19.51;57.56;99233.81;109576;1274;22981;-82
2023/07/02 03:50:27;;;;;;;9.30;7.50;;;;;;;19.54;57.82;99239.16;109382;1274;21988;-82
2023/07/02 03:53:13;;;;;;;8.60;7.70;;;;;;;19.56;57.95;99240.47;109662;1267;22055;-84
2023/07/02 03:55:55;;;;;;;10.10;7.70;;;;;;;19.54;58.04;99243.05;110099;1268;22005;-82
2023/07/02 03:58:35;;;;;;;9.40;7.30;;;;;;;19.52;58.35;99245.18;110282;1267;23040;-82
2023/07/02 04:01:24;;;;;;;7.80;6.70;;;;;;;19.51;58.82;99250.76;109898;1267;21984;-82
2023/07/02 04:04:08;;;;;;;8.10;7.10;;;;;;;19.48;59.26;99249.95;110777;1262;21990;-85
2023/07/02 04:06:52;;;;;;;9.40;7.10;;;;;;;19.47;59.72;99244.08;110413;1267;23751;-84
2023/07/02 04:09:49;;;;;;;9.10;7.70;;;;;;;19.45;60.14;99245.94;110193;1266;21965;-84
2023/07/02 04:12:37;;;;;;;9.20;6.50;;;;;;;19.48;60.55;99247.52;110470;1264;24373;-83
2023/07/02 04:15:40;;;;;;;9.90;6.80;;;;;;;19.46;60.71;99246.41;110773;1264;23622;-85
2023/07/02 04:18:48;;;;;;;6.90;5.90;;;;;;;19.44;61.05;99251.77;110549;1258;21957;-84
2023/07/02 04:21:41;;;;;;;8.10;6.40;;;;;;;19.45;61.30;99254.10;110552;1264;23031;-83
2023/07/02 04:24:33;;;;;;;7.30;6.40;;;;;;;19.47;61.48;99255.55;110955;1258;22451;-83
2023/07/02 04:27:13;;;;;;;6.20;5.60;;;;;;;19.49;61.69;99253.71;111143;1258;22266;-84
2023/07/02 04:30:14;;;;;;;6.30;5.10;;;;;;;19.49;61.92;99254.60;111257;1258;21995;-83
2023/07/02 04:33:02;;;;;;;6.00;5.40;;;;;;;19.52;62.10;99261.26;111092;1258;21984;-83
2023/07/02 04:35:44;;;;;;;7.70;5.20;;;;;;;19.51;62.03;99262.20;111026;1258;21959;-81
2023/07/02 04:38:22;;;;;;;6.50;5.90;;;;;;;19.47;62.12;99261.88;110777;1259;22496;-84
2023/07/02 04:41:05;;;;;;;8.10;5.80;;;;;;;19.45;62.46;99263.60;110433;1265;22000;-84
2023/07/02 04:43:34;;;;;;;5.80;5.20;;;;;;;19.49;62.73;99263.42;110478;1264;21973;-82
2023/07/02 04:46:07;;;;;;;9.20;6.00;;;;;;;19.50;62.99;99260.73;110439;1264;21975;-83
2023/07/02 04:48:46;;;;;;;7.00;5.60;;;;;;;19.60;62.95;99277.10;110613;1264;21968;-81
2023/07/02 04:51:22;;;;;;;5.70;5.00;;;;;;;19.64;62.97;99277.29;110444;1264;21972;-80
2023/07/02 04:54:04;;;;;;;5.70;3.90;;;;;;;19.67;63.02;99275.36;110518;1264;21992;-82
2023/07/02 04:56:44;;;;;;;6.60;4.40;;;;;;;19.71;63.06;99278.06;111066;1259;21966;-83
2023/07/02 05:00:29;;;;;;;6.90;4.00;;;;;;;19.69;62.95;99271.13;110190;1265;22005;-84
2023/07/02 05:04:22;;;;;;;5.60;3.90;;;;;;;19.67;63.07;99279.80;109917;1271;21988;-85
2023/07/02 05:08:10;;;;;;;5.50;3.60;;;;;;;19.68;63.23;99283.41;109308;1273;22046;-83
2023/07/02 05:11:27;;;;;;;3.90;3.60;;;;;;;19.70;63.36;99276.91;109660;1272;23756;-85
2023/07/02 05:15:55;;;;;;;6.00;3.50;;;;;;;19.73;63.66;99279.43;109664;1273;23709;-84
2023/07/02 05:19:51;;;;;;;5.80;3.20;;;;;;;19.84;63.84;99284.56;109307;1276;22921;-84
2023/07/02 05:23:30;;;;;;;;;;;;;;;;;;;;;
2023/07/02 05:27:03;;;;;;;3.50;2.90;;;;;;;20.04;63.52;99293.12;109538;1273;24321;-84
2023/07/02 05:30:26;;;;;;;2.90;2.50;;;;;;;20.11;63.41;99293.77;109546;1270;22000;-83
2023/07/02 05:33:27;;;;;;;;;;;;;;;;;;;;;
2023/07/02 05:36:35;;;;;;;4.10;2.90;;;;;;;20.19;62.89;99300.89;109389;1275;22729;-80
2023/07/02 05:39:23;;;;;;;7.30;2.50;;;;;;;20.18;62.79;99301.02;109306;1275;22028;-81
2023/07/02 05:42:22;;;;;;;4.30;2.80;;;;;;;20.20;62.94;99303.80;109588;1275;23135;-82
2023/07/02 05:45:14;;;;;;;3.90;2.50;;;;;;;20.13;62.83;99296.89;109309;1275;21990;-81
2023/07/02 05:48:43;;;;;;;5.00;2.40;;;;;;;20.15;62.96;99306.75;109293;1277;23738;-81
2023/07/02 05:51:24;;;;;;;;;;;;;;;20.12;63.18;99310.02;109016;1279;22326;-83
2023/07/02 05:54:12;;;;;;;11.20;3.10;;;;;;;20.05;63.52;99309.96;109402;1275;23605;-83
2023/07/02 05:56:52;;;;;;;4.90;2.60;;;;;;;20.09;63.49;99308.19;109343;1275;23782;-81
2023/07/02 05:59:56;;;;;;;5.90;2.30;;;;;;;20.08;63.44;99300.59;109365;1275;22232;-82
2023/07/02 06:02:29;;;;;;;2.90;2.10;;;;;;;20.14;63.68;99307.54;109405;1263;22016;-82
2023/07/02 06:05:02;;;;;;;6.30;2.50;;;;;;;20.21;63.66;99305.83;109362;1275;21996;-82
2023/07/02 06:07:52;;;;;;;7.90;2.20;;;;;;;20.24;63.46;99308.19;109501;1271;22873;-83
2023/07/02 06:10:29;;;;;;;2.90;2.10;;;;;;;20.26;63.58;99307.48;110389;1266;22067;-79
2023/07/02 06:13:04;;;;;;;2.70;2.10;;;;;;;20.35;63.83;99308.82;110190;1266;21984;-80
2023/07/02 06:15:37;;;;;;;2.50;1.90;;;;;;;20.47;63.75;99308.85;110759;1258;21970;-81
2023/07/02 06:18:14;;;;;;;5.60;2.30;;;;;;;20.60;63.56;99308.89;111185;1258;21974;-81
2023/07/02 06:21:00;;;;;;;;;;;;;;;;;;;;;
2023/07/02 06:23:51;;;;;;;4.50;2.10;;;;;;;20.87;63.46;99307.11;111018;1261;21951;-81
2023/07/02 06:26:24;;;;;;;3.00;2.00;;;;;;;21.13;63.66;99308.52;111243;1257;21992;-82
2023/07/02 06:29:03;;;;;;;5.70;2.00;;;;;;;21.51;63.21;99312.52;110801;1263;21978;-83
2023/07/02 06:31:37;;;;;;;2.50;1.80;;;;;;;21.84;61.93;99314.09;110878;1262;21967;-81
2023/07/02 06:34:14;;;;;;;4.00;2.10;;;;;;;21.99;60.19;99317.48;110844;1263;22223;-81
2023/07/02 06:36:49;;;;;;;5.20;3.80;;;;;;;22.07;59.77;99319.48;110111;1267;21979;-79
2023/07/02 06:39:19;;;;;;;2.70;2.00;;;;;;;22.12;59.43;99323.24;109885;1268;21986;-84
2023/07/02 06:41:55;;;;;;;3.70;1.90;;;;;;;22.13;59.07;99314.77;110008;1267;21971;-79
2023/07/02 06:44:38;;;;;;;4.40;1.70;;;;;;;22.08;58.44;99308.29;110221;1259;21991;-82
2023/07/02 06:47:12;;;;;;;2.50;1.70;;;;;;;22.14;58.59;99318.61;110571;1259;23002;-84
2023/07/02 06:49:47;;;;;;;3.90;1.50;;;;;;;22.09;58.27;99319.86;110521;1263;23024;-82
2023/07/02 06:52:32;;;;;;;4.90;3.30;;;;;;;22.02;58.24;99323.77;110644;1262;22286;-83
2023/07/02 07:01:35;;;;;;;3.10;2.10;;;;;;;22.01;59.04;99328.11;111438;1254;23608;-82
2023/07/02 07:04:16;;;;;;;2.70;1.70;;;;;;;22.09;58.81;99325.87;111635;1253;21973;-83
2023/07/02 07:07:03;;;;;;;2.30;1.60;;;;;;;22.12;58.96;99317.55;111308;1257;23685;-84
2023/07/02 07:09:42;;;;;;;4.50;2.10;;;;;;;22.39;59.01;99326.35;110684;1261;23706;-79
2023/07/02 07:12:11;;;;;;;6.10;1.60;;;;;;;22.64;58.16;99329.79;110945;1261;23622;-79
2023/07/02 07:14:43;;;;;;;4.00;2.20;;;;;;;22.76;56.98;99332.81;110806;1261;22718;-80
2023/07/02 07:17:16;;;;;;;;;;;;;;;22.80;56.30;99332.73;110783;1261;23571;-79
2023/07/02 07:19:47;;;;;;;2.30;1.60;;;;;;;22.75;56.57;99330.55;110765;1261;22178;-81
2023/07/02 08:30:02;;;;;;;5.10;1.40;;;;;;;22.98;52.03;99362.56;107735;1295;548630;-81
2023/07/02 08:32:33;;;;;;;8.30;1.90;;;;;;;23.39;49.97;99373.92;108173;1267;2518773;-86
2023/07/02 08:35:03;;;;;;;3.00;2.50;;;;;;;23.20;50.86;99372.55;110886;1261;22607;-86
2023/07/02 08:37:38;;;;;;;6.80;2.50;;;;;;;23.26;51.35;99372.96;111263;1261;21996;-83
2023/07/02 08:41:03;;;;;;;6.50;3.60;;;;;;;23.39;51.59;99374.22;111126;1261;21960;-82
2023/07/02 08:44:04;;;;;;;3.70;2.20;;;;;;;23.60;51.36;99373.80;110896;1260;21967;-83
2023/07/02 08:46:50;;;;;;;7.00;2.30;;;;;;;23.86;50.49;99372.27;111119;1248;23081;-83
2023/07/02 08:49:51;;;;;;;2.00;1.50;;;;;;;24.32;49.28;99375.29;111079;1248;23812;-82
2023/07/02 08:53:02;;;;;;;2.10;1.40;;;;;;;24.85;47.34;99376.38;111007;1261;21995;-82
2023/07/02 08:56:12;;;;;;;6.00;1.50;;;;;;;25.46;45.65;99370.08;109942;1270;21975;-83
2023/07/02 09:02:53;;;;;;;3.60;1.70;;;;;;;25.84;41.38;99377.52;110538;1268;21968;-81
2023/07/02 09:05:53;;;;;;;3.40;1.60;;;;;;;25.51;41.30;99371.90;109449;1274;22199;-82
2023/07/02 09:08:29;;;;;;;4.50;2.10;;;;;;;25.38;42.41;99383.72;109765;1267;21996;-79
2023/07/02 09:11:22;;;;;;;2.80;1.80;;;;;;;25.52;43.50;99376.16;109659;1272;21995;-79
2023/07/02 09:14:00;;;;;;;3.10;2.10;;;;;;;25.84;43.30;99373.25;108200;1268;2557831;-79
2023/07/02 09:16:39;;;;;;;2.80;1.50;;;;;;;25.98;42.68;99374.30;109627;1273;22011;-77
2023/07/02 09:19:14;;;;;;;4.80;1.40;;;;;;;25.97;41.62;99376.21;109500;1271;21982;-76
2023/07/02 09:21:52;;;;;;;10.20;8.00;;;;;;;26.07;40.45;99380.10;109437;1270;23713;-77
2023/07/02 09:24:27;;;;;;;3.30;1.60;;;;;;;26.25;39.86;99379.77;109537;1268;22002;-77
2023/07/02 09:27:11;;;;;;;1.60;1.30;;;;;;;26.35;38.98;99381.05;108949;1274;21992;-76
2023/07/02 09:30:23;;;;;;;4.90;1.70;;;;;;;26.29;38.87;99377.78;109103;1273;21988;-78
2023/07/02 09:33:14;;;;;;;5.40;1.40;;;;;;;26.33;38.91;99383.61;109347;1274;21989;-79
2023/07/02 09:35:59;;;;;;;3.10;1.90;;;;;;;26.49;38.97;99388.15;109645;1268;22007;-78
2023/07/02 09:39:09;;;;;;;1.50;1.10;;;;;;;26.69;38.16;99392.07;109635;1268;22746;-76
2023/07/02 09:41:52;;;;;;;1.90;1.20;;;;;;;26.56;38.06;99385.17;109782;1268;23783;-76
2023/07/02 09:44:33;;;;;;;2.60;1.50;;;;;;;26.68;38.24;99394.31;109632;1262;21960;-78
2023/07/02 09:47:30;;;;;;;3.10;1.30;;;;;;;26.69;37.90;99390.10;111148;1255;21958;-75
2023/07/02 09:50:11;;;;;;;4.70;1.50;;;;;;;26.62;37.68;99389.91;111311;1256;22042;-75
2023/07/02 09:52:56;;;;;;;2.20;1.50;;;;;;;26.41;37.72;99396.48;111214;1255;22286;-76
2023/07/02 09:55:51;;;;;;;2.40;1.50;;;;;;;26.13;37.92;99394.82;111377;1255;23779;-77
2023/07/02 09:58:37;;;;;;;3.70;1.30;;;;;;;25.78;38.48;99390.73;111505;1255;21968;-81
2023/07/02 10:01:57;;;;;;;5.60;1.90;;;;;;;25.75;39.18;99386.31;111512;1255;23815;-78
2023/07/02 10:06:11;;;;;;;2.50;1.50;;;;;;;25.80;39.20;99391.75;110798;1260;24218;-77
2023/07/02 10:09:45;;;;;;;2.10;1.50;;;;;;;25.64;39.55;99389.26;109148;1275;21979;-76
2023/07/02 10:13:02;;;;;;;3.50;1.60;;;;;;;25.46;39.86;99369.83;109547;1270;21998;-78
2023/07/02 10:16:09;;;;;;;2.10;1.80;;;;;;;25.55;40.46;99382.65;109333;1272;21992;-78
2023/07/02 10:18:50;;;;;;;4.10;1.40;;;;;;;25.65;39.99;99382.30;109433;1267;22454;-78
2023/07/02 10:21:26;;;;;;;3.70;1.80;;;;;;;25.79;39.87;99380.90;109415;1271;22017;-79
2023/07/02 10:24:24;;;;;;;2.10;1.50;;;;;;;25.95;39.30;99380.33;110258;1266;24158;-78
2023/07/02 10:27:19;;;;;;;2.80;1.50;;;;;;;26.00;38.56;99378.67;110194;1265;22069;-80
2023/07/02 10:30:41;;;;;;;2.60;1.50;;;;;;;25.95;38.51;99377.52;109280;1270;23781;-79
2023/07/02 10:33:42;;;;;;;;;;;;;;;;;;;;;
2023/07/02 10:37:22;;;;;;;2.70;1.30;;;;;;;25.75;39.12;99383.51;108526;1285;21998;-78
2023/07/02 10:40:52;;;;;;;3.50;1.50;;;;;;;25.71;39.06;99383.67;108114;1289;22003;-77
2023/07/02 10:43:48;;;;;;;2.20;1.40;;;;;;;25.63;38.82;99392.05;107471;1296;23757;-78
2023/07/02 10:46:58;;;;;;;2.00;1.50;;;;;;;25.45;38.20;99392.55;107521;1291;22001;-78
2023/07/02 10:49:35;;;;;;;;;;;;;;;25.20;38.60;99394.95;107493;1296;22287;-79
2023/07/02 10:53:05;;;;;;;3.00;1.70;;;;;;;25.05;39.16;99394.26;107760;1291;22004;-78
2023/07/02 10:56:07;;;;;;;2.40;1.70;;;;;;;25.08;38.86;99385.52;108615;1282;23077;-78
2023/07/02 10:59:07;;;;;;;5.60;1.70;;;;;;;25.13;38.67;99392.95;108786;1278;22401;-79
2023/07/02 11:02:49;;;;;;;4.60;1.60;;;;;;;25.18;38.38;99400.06;109227;1273;23615;-78
2023/07/02 11:06:38;;;;;;;2.50;1.60;;;;;;;25.12;38.16;99405.20;109226;1273;22966;-78
2023/07/02 11:10:12;;;;;;;2.40;1.60;;;;;;;24.85;38.33;99403.26;109193;1268;22000;-77
2023/07/02 11:13:26;;;;;;;;;;;;;;;24.56;38.56;99399.71;108901;1278;23706;-78
2023/07/02 11:17:05;;;;;;;4.40;1.70;;;;;;;24.17;39.10;99399.27;108817;1280;21985;-78
2023/07/02 11:20:39;;;;;;;1.90;1.60;;;;;;;23.93;39.95;99406.46;108756;1279;23845;-76
2023/07/02 11:24:16;;;;;;;2.70;1.60;;;;;;;23.64;40.67;99403.17;108525;1276;21987;-78
2023/07/02 11:27:38;;;;;;;2.80;1.50;;;;;;;23.57;41.40;99398.34;108628;1281;22069;-78
2023/07/02 11:31:43;;;;;;;;;;;;;;;;;;;;;
2023/07/02 11:35:07;;;;;;;3.70;2.70;;;;;;;23.90;42.08;99394.30;108552;1284;23074;-78
2023/07/02 11:38:57;;;;;;;4.30;2.70;;;;;;;24.19;42.19;99392.75;108353;1287;22014;-84
2023/07/02 11:42:22;;;;;;;2.50;1.80;;;;;;;24.49;42.04;99386.80;108393;1291;21901;-78
2023/07/02 11:45:42;;;;;;;2.20;1.50;;;;;;;24.75;41.69;99388.16;107936;1293;22004;-79
2023/07/02 11:48:53;;;;;;;2.70;1.80;;;;;;;24.94;41.09;99390.91;107981;1290;22007;-79
2023/07/02 11:51:54;;;;;;;3.70;2.10;;;;;;;25.02;40.88;99394.65;108022;1276;23058;-77
2023/07/02 11:55:02;;;;;;;2.30;1.50;;;;;;;25.04;40.50;99396.67;108515;1284;21995;-78
2023/07/02 11:58:22;;;;;;;3.20;2.30;;;;;;;25.18;40.24;99397.60;108491;1284;22380;-78
2023/07/02 12:01:34;;;;;;;3.50;1.90;;;;;;;25.32;39.21;99397.41;108472;1285;21993;-76
2023/07/02 12:04:34;;;;;;;2.20;1.30;;;;;;;25.43;38.76;99394.32;108695;1282;22007;-78
2023/07/02 12:08:09;;;;;;;2.80;1.30;;;;;;;25.56;38.70;99393.63;108646;1281;22021;-76
2023/07/02 12:11:49;;;;;;;2.60;1.30;;;;;;;25.63;37.59;99398.45;108982;1273;21980;-77
2023/07/02 12:15:43;;;;;;;5.40;1.80;;;;;;;25.49;37.24;99408.08;109613;1267;23065;-78
2023/07/02 12:18:57;;;;;;;3.00;1.40;;;;;;;25.27;37.13;99424.66;109549;1264;21978;-78
2023/07/02 12:22:15;;;;;;;3.00;2.60;;;;;;;25.12;37.41;99421.59;110101;1262;23599;-77
2023/07/02 12:25:37;;;;;;;2.40;1.50;;;;;;;24.98;37.72;99419.73;109998;1267;22962;-78
2023/07/02 12:29:04;;;;;;;2.80;1.70;;;;;;;24.89;38.03;99421.09;110064;1268;23819;-78
2023/07/02 12:31:52;;;;;;;4.70;1.70;;;;;;;24.97;38.19;99414.23;110011;1267;22002;-79
2023/07/02 12:34:53;;;;;;;2.10;1.60;;;;;;;25.04;37.80;99408.17;110007;1266;23046;-76
2023/07/02 12:38:24;;;;;;;4.90;2.40;;;;;;;25.06;37.75;99412.77;109910;1267;22704;-78
2023/07/02 12:41:42;;;;;;;3.10;1.80;;;;;;;25.01;37.69;99416.58;110140;1267;22252;-78
2023/07/02 12:44:56;;;;;;;;;;;;;;;;;;;;;
2023/07/02 12:48:00;;;;;;;6.20;1.70;;;;;;;24.92;37.74;99417.11;110111;1267;23711;-78
2023/07/02 12:51:23;;;;;;;2.60;1.30;;;;;;;24.89;37.37;99415.65;109488;1271;24441;-77
2023/07/02 12:57:31;;;;;;;1.40;1.20;;;;;;;25.03;37.12;99415.42;109090;1276;22884;-77
2023/07/02 13:00:34;;;;;;;3.00;1.50;;;;;;;25.17;36.73;99413.91;108245;1286;22013;-76
2023/07/02 13:03:52;;;;;;;3.40;1.50;;;;;;;25.26;35.93;99414.09;108342;1286;22755;-79
2023/07/02 13:06:59;;;;;;;3.20;1.50;;;;;;;25.27;35.59;99408.58;108419;1279;22010;-77
2023/07/02 13:09:38;;;;;;;2.60;1.40;;;;;;;25.35;35.31;99410.27;108564;1282;24381;-78
2023/07/02 13:12:20;;;;;;;2.90;1.70;;;;;;;25.37;35.15;99409.63;108757;1278;22495;-78
2023/07/02 13:15:34;;;;;;;1.50;1.20;;;;;;;25.36;35.03;99402.61;109006;1278;23026;-76
2023/07/02 13:19:02;;;;;;;2.60;1.40;;;;;;;25.29;34.48;99405.23;109038;1280;22002;-81
2023/07/02 13:21:49;;;;;;;2.50;1.80;;;;;;;25.16;34.44;99410.63;108758;1285;22761;-81
2023/07/02 13:24:52;;;;;;;;;;;;;;;;;;;;;
2023/07/02 13:28:19;;;;;;;5.50;1.60;;;;;;;25.14;34.79;99422.18;108833;1277;22841;-78
2023/07/02 13:31:03;;;;;;;4.90;1.80;;;;;;;25.22;34.80;99423.52;108804;1279;21988;-77
2023/07/02 13:34:09;;;;;;;4.90;1.70;;;;;;;25.25;34.47;99427.23;108800;1279;22005;-76
2023/07/02 13:37:18;;;;;;;2.40;1.50;;;;;;;25.24;34.59;99429.86;109337;1272;22600;-78
2023/07/02 13:40:41;;;;;;;2.40;1.70;;;;;;;25.22;34.49;99431.27;110093;1268;21985;-77
2023/07/02 13:43:29;;;;;;;7.90;1.80;;;;;;;25.27;34.65;99428.83;109490;1272;23133;-78
2023/07/02 13:46:35;;;;;;;2.10;1.40;;;;;;;25.33;34.40;99429.52;109539;1271;22112;-77
2023/07/02 13:49:43;;;;;;;5.00;1.60;;;;;;;25.22;33.69;99436.77;109638;1271;22003;-78
2023/07/02 13:52:58;;;;;;;;;;;;;;;;;;;;;
2023/07/02 13:55:47;;;;;;;2.50;1.70;;;;;;;25.04;34.58;99437.45;110287;1264;23663;-77
2023/07/02 13:58:47;;;;;;;5.00;2.10;;;;;;;25.11;34.74;99444.76;110087;1268;21952;-78
2023/07/02 14:01:42;;;;;;;2.80;1.80;;;;;;;25.03;34.11;99445.36;110217;1264;21960;-77
2023/07/02 14:04:53;;;;;;;2.10;1.20;;;;;;;24.97;34.14;99443.58;109685;1269;22050;-77
2023/07/02 14:07:44;;;;;;;2.90;1.80;;;;;;;24.97;34.09;99446.13;109821;1270;23772;-77
2023/07/02 14:10:39;;;;;;;2.70;1.90;;;;;;;24.96;34.14;99451.53;109910;1269;23161;-77
2023/07/02 14:14:00;;;;;;;3.00;1.50;;;;;;;24.91;34.11;99451.38;109752;1264;21988;-78
2023/07/02 14:17:03;;;;;;;3.20;1.90;;;;;;;24.79;34.40;99448.89;109764;1268;23748;-77
2023/07/02 14:20:42;;;;;;;3.80;1.70;;;;;;;24.78;34.44;99451.02;109676;1270;22543;-76
2023/07/02 14:23:30;;;;;;;2.90;1.70;;;;;;;24.80;34.53;99462.73;110013;1266;21970;-77
2023/07/02 14:26:37;;;;;;;3.10;1.40;;;;;;;24.85;34.67;99463.08;109964;1265;22184;-77
2023/07/02 14:29:34;;;;;;;5.00;2.20;;;;;;;24.90;34.78;99474.60;110188;1266;22987;-78
2023/07/02 14:32:43;;;;;;;1.60;1.40;;;;;;;24.86;34.61;99474.11;109874;1266;23207;-78
2023/07/02 14:35:59;;;;;;;2.80;2.00;;;;;;;24.84;34.83;99478.42;109574;1267;21964;-78
2023/07/02 14:39:04;;;;;;;2.90;1.80;;;;;;;24.85;34.85;99483.48;109374;1272;22005;-77
2023/07/02 14:42:22;;;;;;;8.90;3.20;;;;;;;24.78;34.54;99490.85;109272;1272;22014;-78
2023/07/02 14:45:44;;;;;;;9.00;2.60;;;;;;;24.72;34.36;99491.46;109342;1272;23817;-78
2023/07/02 14:49:25;;;;;;;;;;;;;;;;;;;;;
2023/07/02 14:53:13;;;;;;;8.30;2.70;;;;;;;24.75;34.30;99494.92;109574;1267;21960;-78
2023/07/02 14:56:42;;;;;;;5.90;2.70;;;;;;;24.64;34.48;99503.29;110082;1262;21997;-76
2023/07/02 15:03:46;;;;;;;8.70;3.10;;;;;;;24.25;34.59;99510.33;110200;1267;22960;-78
2023/07/02 15:07:11;;;;;;;6.10;1.90;;;;;;;24.07;34.77;99509.23;109693;1268;23005;-79
2023/07/02 15:10:38;;;;;;;14.40;2.40;;;;;;;24.06;34.78;99516.45;109928;1268;23655;-79
2023/07/02 15:13:41;;;;;;;3.60;2.00;;;;;;;23.97;34.81;99517.08;109907;1268;23631;-78
2023/07/02 15:17:08;;;;;;;6.50;2.50;;;;;;;23.95;34.97;99522.99;109684;1268;22251;-79
2023/07/02 15:20:13;;;;;;;8.50;2.20;;;;;;;24.00;35.31;99534.50;109648;1271;23018;-79
2023/07/02 15:23:26;;;;;;;7.30;2.70;;;;;;;24.07;35.33;99531.24;108995;1276;22062;-81
2023/07/02 15:27:10;;;;;;;5.10;2.20;;;;;;;24.09;35.43;99528.52;109054;1276;23716;-78
2023/07/02 15:33:42;;;;;;;5.90;2.70;;;;;;;23.94;36.13;99524.52;109660;1262;21979;-79
2023/07/02 15:36:35;;;;;;;5.90;2.60;;;;;;;23.88;36.31;99537.59;109931;1262;21973;-78